CheckWX is a tool to help pilots better visualize weather data.  It is not intended as a substitute for an official pre-flight weather briefing.

21:31:30 UTC

KDVK METAR
Stuart Powell Field Airport
Danville, Kentucky, USA
Current

17 mins ago

KDVK 052115Z AUTO 36008KT 10SM CLR 21/12 A3005 RMK AO2
Observed
Apr-5 @ 21:15 UTC
Wind
  • 360° at 8 KTS
Visibility
Flight Rules
VFR
Cloud Levels
  • Clear skies
Temperature
21°C / 70°F
Dewpoint
12°C / 54°F
Humidity
57%
Altimeter
30.05" Hg
Pressure
1017.62 hPa
Previous

37 mins ago

KDVK 052055Z AUTO 33007KT 10SM CLR 22/11 A3005 RMK AO2
Observed
Apr-5 @ 20:55 UTC
Wind
  • 330° at 7 KTS
Visibility
Flight Rules
VFR
Cloud Levels
  • Clear skies
Temperature
22°C / 72°F
Dewpoint
11°C / 52°F
Humidity
50%
Altimeter
30.05" Hg
Pressure
1017.62 hPa
Previous

57 mins ago

KDVK 052035Z AUTO 34008G14KT 10SM CLR 22/12 A3005 RMK AO2
Observed
Apr-5 @ 20:35 UTC
Wind
  • 340° at 8 KTS
  • Gusting to 14 KTS
Visibility
Flight Rules
VFR
Cloud Levels
  • Clear skies
Temperature
22°C / 72°F
Dewpoint
12°C / 54°F
Humidity
53%
Altimeter
30.05" Hg
Pressure
1017.62 hPa